Time;durP1;ratioP1;P1;durP2;ratioP2;P2;SDS_P1;SDS_P2;PMS_P1;PMS_P2;Temp;Humidity;BMP_temperature;BMP_pressure;BME280_temperature;BME280_humidity;BME280_pressure;Samples;Min_cycle;Max_cycle;Signal;HPM_P1;HPM_P2
2022/09/09 00:02:02;;;;;;;0.80;0.80;;;12.70;99.90;;;;;;5015391;28;20406;-71
2022/09/09 00:04:30;;;;;;;0.50;0.47;;;12.80;99.90;;;;;;5015775;28;20495;-70
2022/09/09 00:07:23;;;;;;;0.30;0.30;;;12.70;99.90;;;;;;5015331;28;20485;-71
2022/09/09 00:10:05;;;;;;;0.30;0.30;;;12.50;99.90;;;;;;5015298;28;20405;-70
2022/09/09 00:12:48;;;;;;;0.30;0.30;;;12.40;99.90;;;;;;5014788;28;20779;-71
2022/09/09 00:15:23;;;;;;;0.63;0.50;;;12.70;99.90;;;;;;5015297;28;20937;-71
2022/09/09 00:18:14;;;;;;;0.30;0.30;;;12.60;99.90;;;;;;5015161;28;20455;-71
2022/09/09 00:20:47;;;;;;;0.40;0.40;;;12.50;99.90;;;;;;5015222;28;20517;-70
2022/09/09 00:23:36;;;;;;;0.50;0.50;;;12.50;99.90;;;;;;5015127;28;20408;-70
2022/09/09 00:26:15;;;;;;;0.70;0.70;;;12.80;99.90;;;;;;5015102;28;20417;-70
2022/09/09 00:29:07;;;;;;;0.83;0.83;;;12.50;99.90;;;;;;5015054;28;20418;-70
2022/09/09 00:31:33;;;;;;;0.40;0.40;;;12.40;99.90;;;;;;4977773;28;20429;-70
2022/09/09 00:34:08;;;;;;;1.03;1.03;;;12.70;99.90;;;;;;5015223;28;20406;-71
2022/09/09 00:36:39;;;;;;;0.30;0.30;;;12.80;99.90;;;;;;5015087;28;20398;-71
2022/09/09 00:39:09;;;;;;;0.30;0.30;;;12.70;99.90;;;;;;5014933;28;20456;-71
2022/09/09 00:41:35;;;;;;;0.40;0.40;;;13.00;99.90;;;;;;5014542;28;20456;-70
2022/09/09 00:44:03;;;;;;;8.10;0.70;;;13.00;99.90;;;;;;5015026;28;20406;-70
2022/09/09 00:47:01;;;;;;;0.50;0.50;;;13.20;99.90;;;;;;5014884;28;20172;-70
2022/09/09 00:49:51;;;;;;;0.40;0.40;;;13.30;99.90;;;;;;5014034;28;20823;-70
2022/09/09 00:52:39;;;;;;;4.20;1.07;;;13.20;99.90;;;;;;5014847;28;20408;-71
2022/09/09 00:55:05;;;;;;;0.30;0.30;;;13.40;99.90;;;;;;5014868;28;20395;-70
2022/09/09 00:57:36;;;;;;;1.53;1.50;;;13.40;99.90;;;;;;5014456;28;20470;-70
2022/09/09 01:00:20;;;;;;;0.40;0.40;;;13.40;99.90;;;;;;5014357;28;20212;-71
2022/09/09 01:03:10;;;;;;;0.40;0.40;;;13.50;99.90;;;;;;5014624;28;20966;-71
2022/09/09 01:05:46;;;;;;;0.40;0.40;;;13.50;99.90;;;;;;5014551;28;20402;-70
2022/09/09 01:08:19;;;;;;;0.50;0.50;;;13.40;99.90;;;;;;5014309;28;20469;-71
2022/09/09 01:10:56;;;;;;;0.30;0.30;;;13.00;99.90;;;;;;5014153;28;20404;-70
2022/09/09 01:13:35;;;;;;;0.40;0.40;;;13.20;99.90;;;;;;5014501;28;20406;-70
2022/09/09 01:16:03;;;;;;;2.30;0.83;;;13.10;99.90;;;;;;5014166;28;20439;-70
2022/09/09 01:18:38;;;;;;;0.77;0.40;;;13.20;99.90;;;;;;5014039;28;20796;-70
2022/09/09 01:21:22;;;;;;;1.17;0.90;;;13.00;99.90;;;;;;5014258;28;20916;-71
2022/09/09 01:24:16;;;;;;;0.40;0.40;;;13.30;99.90;;;;;;5013409;28;20402;-71
2022/09/09 01:26:46;;;;;;;0.30;0.30;;;13.60;99.90;;;;;;4983564;28;20421;-71
2022/09/09 01:29:17;;;;;;;0.40;0.40;;;13.60;99.90;;;;;;5014047;28;20417;-71
2022/09/09 01:31:56;;;;;;;0.30;0.30;;;13.30;99.90;;;;;;5014063;28;20415;-70
2022/09/09 01:34:24;;;;;;;0.30;0.30;;;13.70;99.90;;;;;;5014206;28;20424;-71
2022/09/09 01:37:09;;;;;;;0.40;0.40;;;13.50;99.90;;;;;;5013900;28;20910;-70
2022/09/09 01:39:36;;;;;;;1.53;1.30;;;13.80;99.90;;;;;;5014091;28;20391;-70
2022/09/09 01:42:04;;;;;;;0.90;0.90;;;13.60;99.90;;;;;;5014020;28;20402;-71
2022/09/09 01:44:30;;;;;;;0.67;0.67;;;13.60;99.90;;;;;;5012398;28;20936;-71
2022/09/09 01:46:56;;;;;;;2.67;1.27;;;;;;;;;;5013802;28;20398;-70
2022/09/09 01:49:22;;;;;;;0.50;0.50;;;13.90;99.90;;;;;;5012564;28;20453;-71
2022/09/09 01:51:56;;;;;;;2.33;1.93;;;13.40;99.90;;;;;;5013691;28;20402;-71
2022/09/09 01:54:23;;;;;;;6.93;1.93;;;13.70;99.90;;;;;;5013872;28;20178;-71
2022/09/09 01:57:10;;;;;;;0.43;0.40;;;13.70;99.90;;;;;;5013808;28;20402;-70
2022/09/09 01:59:47;;;;;;;0.90;0.40;;;13.30;99.90;;;;;;5013776;28;20494;-70
2022/09/09 02:02:43;;;;;;;0.40;0.40;;;13.50;99.90;;;;;;5013892;28;20403;-70
2022/09/09 02:05:36;;;;;;;0.60;0.60;;;13.70;99.90;;;;;;5013958;28;20769;-70
2022/09/09 02:08:30;;;;;;;1.17;1.17;;;14.00;99.90;;;;;;5013722;28;20426;-71
2022/09/09 02:11:03;;;;;;;1.40;1.40;;;13.60;99.90;;;;;;4999610;28;20461;-71
2022/09/09 02:13:32;;;;;;;0.30;0.30;;;13.20;99.90;;;;;;5012386;28;20408;-71
2022/09/09 02:16:03;;;;;;;0.40;0.40;;;13.20;99.90;;;;;;5013404;28;20433;-71
2022/09/09 02:18:47;;;;;;;0.40;0.40;;;13.50;99.90;;;;;;5013397;28;20457;-71
2022/09/09 02:21:13;;;;;;;0.40;0.40;;;;;;;;;;5013576;28;20869;-70
2022/09/09 02:23:42;;;;;;;0.30;0.30;;;13.30;99.90;;;;;;5013589;28;20397;-71
2022/09/09 02:26:13;;;;;;;0.40;0.40;;;13.80;99.90;;;;;;5013596;28;20406;-70
2022/09/09 02:28:40;;;;;;;0.80;0.70;;;13.60;99.90;;;;;;5013433;28;20445;-71
2022/09/09 02:31:06;;;;;;;0.30;0.30;;;13.60;99.90;;;;;;5013314;28;20421;-71
2022/09/09 02:33:38;;;;;;;0.40;0.40;;;13.80;99.90;;;;;;5013457;28;20430;-71
2022/09/09 02:36:07;;;;;;;0.40;0.40;;;13.60;99.90;;;;;;5016348;28;20402;-71
2022/09/09 02:38:39;;;;;;;0.30;0.30;;;13.30;99.90;;;;;;5017082;28;20508;-70
2022/09/09 02:41:06;;;;;;;0.30;0.30;;;13.90;99.90;;;;;;5016985;28;20406;-71
2022/09/09 02:43:34;;;;;;;0.80;0.80;;;13.70;99.90;;;;;;5017485;28;20907;-70
2022/09/09 02:46:25;;;;;;;0.70;0.70;;;13.50;99.90;;;;;;5017095;28;20928;-70
2022/09/09 02:49:19;;;;;;;0.40;0.40;;;13.40;99.90;;;;;;5016995;28;20840;-71
2022/09/09 02:51:59;;;;;;;0.30;0.30;;;13.80;99.90;;;;;;5007972;28;20517;-71
2022/09/09 02:54:35;;;;;;;2.10;1.73;;;14.20;99.90;;;;;;5017146;28;20437;-71
2022/09/09 02:57:12;;;;;;;0.40;0.40;;;13.60;99.90;;;;;;5016996;28;20761;-71
2022/09/09 02:59:39;;;;;;;0.50;0.50;;;13.60;99.90;;;;;;5016699;28;20420;-71
2022/09/09 03:02:04;;;;;;;0.63;0.60;;;14.10;99.90;;;;;;5016730;28;20774;-71
2022/09/09 03:04:31;;;;;;;0.50;0.50;;;;;;;;;;5016741;28;20567;-71
2022/09/09 03:06:58;;;;;;;0.40;0.40;;;14.20;99.90;;;;;;5016643;28;20257;-71
2022/09/09 03:09:24;;;;;;;0.47;0.47;;;13.90;99.90;;;;;;5016589;28;20490;-71
2022/09/09 03:11:50;;;;;;;1.47;1.13;;;;;;;;;;5016597;28;20497;-71
2022/09/09 03:14:16;;;;;;;0.40;0.40;;;;;;;;;;5016474;28;20509;-70
2022/09/09 03:16:42;;;;;;;0.50;0.50;;;;;;;;;;5016677;28;20493;-70
2022/09/09 03:19:08;;;;;;;1.27;0.73;;;13.90;99.90;;;;;;5016419;28;20457;-71
2022/09/09 03:21:35;;;;;;;0.40;0.40;;;13.80;99.90;;;;;;5016285;28;20406;-70
2022/09/09 03:24:03;;;;;;;1.33;0.60;;;14.20;99.90;;;;;;5016514;28;20402;-71
2022/09/09 03:26:30;;;;;;;0.40;0.40;;;13.90;99.90;;;;;;5016613;28;20406;-71
2022/09/09 03:28:56;;;;;;;0.40;0.40;;;13.80;99.90;;;;;;5016166;28;20835;-71
2022/09/09 03:31:22;;;;;;;0.43;0.43;;;;;;;;;;5016281;28;20501;-71
2022/09/09 03:33:48;;;;;;;0.30;0.30;;;;;;;;;;5016151;28;20210;-70
2022/09/09 03:36:14;;;;;;;0.30;0.30;;;14.10;99.90;;;;;;5016192;28;20399;-71
2022/09/09 03:38:41;;;;;;;0.50;0.50;;;14.10;99.90;;;;;;5015947;28;20822;-70
2022/09/09 03:41:07;;;;;;;0.70;0.70;;;14.20;99.90;;;;;;5015878;28;20411;-71
2022/09/09 03:43:33;;;;;;;0.80;0.80;;;13.90;99.90;;;;;;5016140;28;20408;-71
2022/09/09 03:45:59;;;;;;;0.53;0.53;;;14.40;99.90;;;;;;5015388;28;20404;-71
2022/09/09 03:48:27;;;;;;;0.70;0.70;;;14.30;99.90;;;;;;5015293;28;20935;-70
2022/09/09 03:50:54;;;;;;;0.73;0.67;;;14.50;99.90;;;;;;5015920;28;20537;-70
2022/09/09 03:53:24;;;;;;;0.53;0.53;;;14.30;99.90;;;;;;5015189;28;20923;-70
2022/09/09 03:55:54;;;;;;;2.13;0.77;;;14.50;99.90;;;;;;5014183;28;20770;-71
2022/09/09 03:58:21;;;;;;;0.50;0.47;;;14.30;99.90;;;;;;5015529;28;20461;-71
2022/09/09 04:00:57;;;;;;;0.30;0.30;;;14.30;99.90;;;;;;5015542;28;20405;-70
2022/09/09 04:03:24;;;;;;;0.40;0.40;;;14.50;99.90;;;;;;5015824;28;20404;-71
2022/09/09 04:05:51;;;;;;;0.40;0.37;;;14.30;99.90;;;;;;5015515;28;20415;-71
2022/09/09 04:08:18;;;;;;;0.50;0.50;;;14.60;99.90;;;;;;5015719;28;20487;-71
2022/09/09 04:10:46;;;;;;;0.70;0.70;;;14.60;99.90;;;;;;5015250;28;20418;-70
2022/09/09 04:13:13;;;;;;;0.57;0.57;;;14.50;99.90;;;;;;5015482;28;20411;-71
2022/09/09 04:15:39;;;;;;;0.40;0.40;;;14.80;99.90;;;;;;5015405;28;20422;-70
2022/09/09 04:18:06;;;;;;;0.83;0.83;;;;;;;;;;5015418;28;20453;-71
2022/09/09 04:20:32;;;;;;;0.30;0.30;;;14.60;99.90;;;;;;5015140;28;20714;-70
2022/09/09 04:22:58;;;;;;;0.33;0.33;;;14.50;99.90;;;;;;5015208;28;20409;-71
2022/09/09 04:25:23;;;;;;;0.40;0.40;;;14.60;99.90;;;;;;5015156;28;20761;-71
2022/09/09 04:27:54;;;;;;;0.40;0.40;;;14.70;99.90;;;;;;5015263;28;20611;-71
2022/09/09 04:30:20;;;;;;;0.80;0.80;;;14.80;99.90;;;;;;5015154;28;20193;-71
2022/09/09 04:32:46;;;;;;;0.70;0.60;;;;;;;;;;5015221;28;20406;-71
2022/09/09 04:35:12;;;;;;;1.10;1.10;;;14.80;99.90;;;;;;5015132;28;20437;-71
2022/09/09 04:37:38;;;;;;;0.83;0.83;;;;;;;;;;5014947;28;20494;-71
2022/09/09 04:40:04;;;;;;;0.40;0.40;;;14.80;99.90;;;;;;5014749;28;20171;-71
2022/09/09 04:42:30;;;;;;;0.40;0.40;;;;;;;;;;5015122;28;20399;-71
2022/09/09 04:44:56;;;;;;;0.67;0.67;;;14.80;99.90;;;;;;5014898;28;20481;-71
2022/09/09 04:47:22;;;;;;;0.30;0.30;;;;;;;;;;5015050;28;20995;-71
2022/09/09 04:49:49;;;;;;;0.30;0.30;;;;;;;;;;5014586;28;20185;-71
2022/09/09 04:52:17;;;;;;;0.63;0.40;;;14.70;99.90;;;;;;5013407;28;20410;-71
2022/09/09 04:54:42;;;;;;;0.30;0.30;;;15.10;99.90;;;;;;5014703;28;20402;-71
2022/09/09 04:57:10;;;;;;;0.40;0.40;;;14.80;99.90;;;;;;5014553;28;20423;-71
2022/09/09 04:59:36;;;;;;;0.40;0.40;;;15.20;99.90;;;;;;5014253;28;20665;-71
2022/09/09 05:02:03;;;;;;;0.67;0.67;;;;;;;;;;5014796;28;20403;-71
2022/09/09 05:04:28;;;;;;;0.40;0.40;;;;;;;;;;5014699;28;20404;-71
2022/09/09 05:06:54;;;;;;;0.40;0.40;;;;;;;;;;5013279;28;20422;-71
2022/09/09 05:09:20;;;;;;;0.30;0.30;;;15.10;99.90;;;;;;5013156;28;20429;-71
2022/09/09 05:11:46;;;;;;;0.90;0.90;;;;;;;;;;5014292;28;20430;-71
2022/09/09 05:14:12;;;;;;;0.40;0.40;;;15.00;99.90;;;;;;5013033;28;20724;-71
2022/09/09 05:16:38;;;;;;;0.40;0.40;;;;;;;;;;5014594;28;20410;-71
2022/09/09 05:19:04;;;;;;;0.43;0.43;;;14.70;99.90;;;;;;5014150;28;20216;-71
2022/09/09 05:21:31;;;;;;;0.50;0.50;;;14.80;99.90;;;;;;5014041;28;20414;-70
2022/09/09 05:23:57;;;;;;;0.60;0.60;;;14.80;99.90;;;;;;5014262;28;20624;-71
2022/09/09 05:26:24;;;;;;;0.50;0.50;;;;;;;;;;5014301;28;20406;-70
2022/09/09 05:28:49;;;;;;;0.40;0.40;;;15.30;99.90;;;;;;5014045;28;20439;-70
2022/09/09 05:31:16;;;;;;;1.23;1.03;;;15.20;99.90;;;;;;5014000;28;20781;-71
2022/09/09 05:33:45;;;;;;;0.30;0.30;;;15.10;99.90;;;;;;5014147;28;20571;-71
2022/09/09 05:36:14;;;;;;;1.10;1.10;;;15.20;99.90;;;;;;5014218;28;20791;-71
2022/09/09 05:38:40;;;;;;;0.50;0.50;;;15.20;99.90;;;;;;5013844;28;20465;-70
2022/09/09 05:41:06;;;;;;;0.67;0.40;;;15.20;99.90;;;;;;5014006;28;20406;-70
2022/09/09 05:43:34;;;;;;;0.40;0.40;;;15.30;99.90;;;;;;5014110;28;20443;-71
2022/09/09 05:46:08;;;;;;;0.40;0.40;;;15.20;99.90;;;;;;5014052;28;20413;-71
2022/09/09 05:48:37;;;;;;;0.40;0.40;;;15.60;99.90;;;;;;5013674;28;20434;-71
2022/09/09 05:51:04;;;;;;;0.50;0.50;;;15.50;99.90;;;;;;5013645;28;20428;-71
2022/09/09 05:53:32;;;;;;;1.50;1.40;;;15.30;99.90;;;;;;5014009;28;20427;-70
2022/09/09 05:56:12;;;;;;;0.30;0.30;;;15.10;99.90;;;;;;5013992;28;20474;-71
2022/09/09 05:58:38;;;;;;;0.30;0.30;;;15.10;99.90;;;;;;5013839;28;20481;-71
2022/09/09 06:01:10;;;;;;;0.50;0.50;;;15.30;99.90;;;;;;5012253;28;20927;-71
2022/09/09 06:03:40;;;;;;;0.53;0.53;;;15.30;99.90;;;;;;5013695;28;20493;-71
2022/09/09 06:06:12;;;;;;;0.77;0.77;;;15.30;99.90;;;;;;5014092;28;20448;-71
2022/09/09 06:08:40;;;;;;;0.40;0.40;;;15.70;99.90;;;;;;5013572;28;20482;-70
2022/09/09 06:11:11;;;;;;;0.97;0.87;;;15.40;99.90;;;;;;5016339;28;20417;-71
2022/09/09 06:13:39;;;;;;;0.60;0.60;;;15.80;99.90;;;;;;5017836;28;20421;-71
2022/09/09 06:16:18;;;;;;;0.40;0.40;;;16.00;99.90;;;;;;5017585;28;20462;-71
2022/09/09 06:18:44;;;;;;;0.67;0.67;;;15.80;99.90;;;;;;5017474;28;21024;-71
2022/09/09 06:21:17;;;;;;;0.47;0.47;;;15.80;99.90;;;;;;5017494;28;20417;-71
2022/09/09 06:23:44;;;;;;;3.03;0.90;;;15.80;99.90;;;;;;5017728;28;20416;-71
2022/09/09 06:26:28;;;;;;;0.40;0.40;;;15.80;99.90;;;;;;5017618;28;21571;-71
2022/09/09 06:28:55;;;;;;;0.43;0.43;;;16.00;99.90;;;;;;5017232;28;20430;-71
2022/09/09 06:31:22;;;;;;;0.80;0.80;;;15.90;99.90;;;;;;5017183;28;20414;-70
2022/09/09 06:33:49;;;;;;;0.60;0.60;;;15.80;99.90;;;;;;5017501;28;20410;-70
2022/09/09 06:36:18;;;;;;;1.67;1.57;;;15.20;99.90;;;;;;5015371;28;20476;-70
2022/09/09 06:38:44;;;;;;;0.50;0.50;;;;;;;;;;5016888;28;20462;-70
2022/09/09 06:41:11;;;;;;;0.70;0.70;;;16.00;99.90;;;;;;5016683;28;20403;-71
2022/09/09 06:43:37;;;;;;;0.40;0.40;;;16.20;99.90;;;;;;5016799;28;20410;-71
2022/09/09 06:46:05;;;;;;;1.13;0.50;;;16.10;99.90;;;;;;5017307;28;20409;-71
2022/09/09 06:48:32;;;;;;;0.50;0.40;;;16.10;99.90;;;;;;5017136;28;20484;-70
2022/09/09 06:51:22;;;;;;;0.50;0.50;;;15.80;99.90;;;;;;5016781;28;20456;-70
2022/09/09 06:53:50;;;;;;;0.37;0.37;;;16.00;99.90;;;;;;5017404;28;20407;-70
2022/09/09 06:56:24;;;;;;;0.70;0.70;;;16.00;99.90;;;;;;5016874;28;20410;-71
2022/09/09 06:58:52;;;;;;;0.40;0.40;;;16.00;99.90;;;;;;5016738;28;20464;-71
2022/09/09 07:01:30;;;;;;;1.23;1.13;;;16.20;99.90;;;;;;5016557;28;20402;-71
2022/09/09 07:03:58;;;;;;;0.43;0.43;;;16.30;99.90;;;;;;5016785;28;20461;-71
2022/09/09 07:06:30;;;;;;;0.40;0.40;;;16.10;99.90;;;;;;5016933;28;20414;-71
2022/09/09 07:09:00;;;;;;;0.40;0.40;;;16.60;99.90;;;;;;5016559;28;20931;-71
2022/09/09 07:11:31;;;;;;;0.60;0.60;;;16.60;99.90;;;;;;5016688;28;20415;-71
2022/09/09 07:13:58;;;;;;;0.30;0.30;;;16.60;99.90;;;;;;5016683;28;20437;-70
2022/09/09 07:16:25;;;;;;;0.37;0.37;;;16.60;99.90;;;;;;5016792;28;20414;-71
2022/09/09 07:18:52;;;;;;;0.40;0.40;;;16.30;99.90;;;;;;5016396;28;20458;-70
2022/09/09 07:21:20;;;;;;;0.50;0.50;;;16.60;99.90;;;;;;5016388;28;20402;-71
2022/09/09 07:23:47;;;;;;;0.40;0.40;;;16.70;99.90;;;;;;5016527;28;20438;-71
2022/09/09 07:26:16;;;;;;;0.40;0.40;;;16.40;99.90;;;;;;5016518;28;20406;-71
2022/09/09 07:28:42;;;;;;;1.43;0.90;;;16.60;99.90;;;;;;5016403;28;20211;-71
2022/09/09 07:31:16;;;;;;;0.50;0.50;;;16.50;99.90;;;;;;5016114;28;20414;-71
2022/09/09 07:33:43;;;;;;;0.40;0.40;;;16.30;99.90;;;;;;5016463;28;20768;-71
2022/09/09 07:36:17;;;;;;;0.30;0.30;;;16.40;99.90;;;;;;5016134;28;20472;-71
2022/09/09 07:38:48;;;;;;;0.50;0.50;;;16.60;99.90;;;;;;5016237;28;20484;-71
2022/09/09 07:41:24;;;;;;;0.50;0.50;;;16.60;99.90;;;;;;5016000;28;20465;-71
2022/09/09 07:43:50;;;;;;;0.40;0.40;;;16.50;99.90;;;;;;5016438;28;20481;-71
2022/09/09 07:46:19;;;;;;;0.50;0.50;;;16.10;99.90;;;;;;5016326;28;20405;-71
2022/09/09 07:48:51;;;;;;;0.40;0.40;;;16.30;99.90;;;;;;5015832;28;20434;-71
2022/09/09 07:51:19;;;;;;;0.93;0.93;;;16.70;99.90;;;;;;5015769;28;20827;-71
2022/09/09 07:53:46;;;;;;;1.77;0.90;;;16.50;99.90;;;;;;5015817;28;20407;-71
2022/09/09 07:56:17;;;;;;;0.40;0.40;;;16.60;99.90;;;;;;5015850;28;20411;-70
2022/09/09 07:58:45;;;;;;;0.30;0.30;;;16.60;99.90;;;;;;5015633;28;20516;-71
2022/09/09 08:01:20;;;;;;;0.40;0.40;;;16.60;99.90;;;;;;5015666;28;20778;-71
2022/09/09 08:03:47;;;;;;;0.40;0.40;;;17.00;99.90;;;;;;5015877;28;20394;-71
2022/09/09 08:06:13;;;;;;;1.63;1.13;;;;;;;;;;5015552;28;20442;-70
2022/09/09 08:08:41;;;;;;;1.03;1.03;;;17.00;99.90;;;;;;5015498;28;20803;-71
2022/09/09 08:11:12;;;;;;;0.30;0.30;;;17.20;99.90;;;;;;5015538;28;20896;-71
2022/09/09 08:13:38;;;;;;;0.43;0.43;;;;;;;;;;5015583;28;20419;-71
2022/09/09 08:16:18;;;;;;;0.40;0.40;;;17.20;99.90;;;;;;5015470;28;20434;-71
2022/09/09 08:18:44;;;;;;;0.77;0.77;;;17.30;99.90;;;;;;5015303;28;20802;-72
2022/09/09 08:21:17;;;;;;;0.90;0.50;;;17.40;99.90;;;;;;5015203;28;20502;-70
2022/09/09 08:23:44;;;;;;;0.50;0.50;;;17.40;99.90;;;;;;5015373;28;20410;-71
2022/09/09 08:26:16;;;;;;;0.40;0.40;;;17.40;99.90;;;;;;5015432;28;20489;-71
2022/09/09 08:28:42;;;;;;;0.60;0.60;;;17.70;99.90;;;;;;5015332;28;20435;-70
2022/09/09 08:31:14;;;;;;;0.40;0.40;;;18.30;99.90;;;;;;5014974;28;20799;-71
2022/09/09 08:33:41;;;;;;;0.30;0.30;;;20.40;99.90;;;;;;5014763;28;20426;-71
2022/09/09 08:36:10;;;;;;;0.37;0.37;;;21.70;99.90;;;;;;5015237;28;20409;-72
2022/09/09 08:38:37;;;;;;;0.50;0.50;;;23.40;99.90;;;;;;5014904;28;20875;-72
2022/09/09 08:41:32;;;;;;;0.40;0.40;;;23.30;94.80;;;;;;5014747;28;20472;-71
2022/09/09 08:44:07;;;;;;;3.30;0.90;;;25.20;90.60;;;;;;5015160;28;20413;-72
2022/09/09 08:46:33;;;;;;;0.30;0.30;;;26.20;99.70;;;;;;5014650;28;20469;-71
2022/09/09 08:49:14;;;;;;;0.50;0.50;;;25.60;99.90;;;;;;5014002;28;20430;-72
2022/09/09 08:51:41;;;;;;;0.37;0.37;;;25.70;99.90;;;;;;5013799;28;20410;-71
2022/09/09 08:54:09;;;;;;;0.40;0.40;;;26.70;99.90;;;;;;5014808;28;20462;-72
2022/09/09 08:56:36;;;;;;;0.30;0.30;;;27.80;99.50;;;;;;5014849;28;20505;-72
2022/09/09 08:59:03;;;;;;;1.07;0.50;;;28.20;73.00;;;;;;5013919;28;20454;-71
2022/09/09 09:01:56;;;;;;;0.30;0.30;;;29.40;96.70;;;;;;5014207;28;20407;-72
2022/09/09 09:04:30;;;;;;;1.53;0.50;;;28.70;90.20;;;;;;5013565;28;20962;-73
2022/09/09 09:07:08;;;;;;;0.70;0.60;;;27.40;96.50;;;;;;5012963;28;20417;-72
2022/09/09 09:10:05;;;;;;;0.33;0.33;;;25.90;94.90;;;;;;5014600;28;20414;-72
2022/09/09 09:12:38;;;;;;;0.30;0.30;;;25.00;96.30;;;;;;5013434;28;20510;-72
2022/09/09 09:15:16;;;;;;;0.30;0.30;;;24.40;99.90;;;;;;5014045;28;20789;-72
2022/09/09 09:17:43;;;;;;;0.40;0.40;;;;;;;;;;5013067;28;20508;-72
2022/09/09 09:20:17;;;;;;;0.30;0.30;;;22.30;98.60;;;;;;5012921;28;20489;-71
2022/09/09 09:22:51;;;;;;;0.30;0.30;;;22.50;80.10;;;;;;5014450;28;20429;-74
2022/09/09 09:25:23;;;;;;;0.30;0.30;;;21.30;99.90;;;;;;5013395;28;20411;-73
2022/09/09 09:28:30;;;;;;;0.40;0.40;;;20.70;92.30;;;;;;5014284;28;20500;-72
2022/09/09 09:31:08;;;;;;;0.50;0.50;;;20.70;99.90;;;;;;4932864;29;20414;-72
2022/09/09 09:33:43;;;;;;;0.40;0.40;;;21.60;99.90;;;;;;4935278;29;20773;-70
2022/09/09 09:36:08;;;;;;;0.50;0.50;;;21.40;99.90;;;;;;4984721;28;20435;-69
2022/09/09 09:38:36;;;;;;;0.30;0.30;;;21.80;90.00;;;;;;5014184;28;20810;-67
2022/09/09 09:41:02;;;;;;;0.30;0.30;;;21.80;90.30;;;;;;5014350;28;20184;-68
2022/09/09 09:43:33;;;;;;;0.30;0.30;;;21.70;88.90;;;;;;5014019;28;20761;-73
2022/09/09 09:45:59;;;;;;;1.13;0.50;;;22.00;99.90;;;;;;5013871;28;20409;-73
2022/09/09 09:48:27;;;;;;;0.40;0.40;;;21.70;86.80;;;;;;5014094;28;20435;-70
2022/09/09 09:50:58;;;;;;;0.30;0.30;;;21.90;90.20;;;;;;5014089;28;20750;-73
2022/09/09 09:53:24;;;;;;;0.50;0.50;;;22.60;83.60;;;;;;5014365;28;20405;-73
2022/09/09 09:55:59;;;;;;;0.30;0.30;;;23.20;87.20;;;;;;5014328;28;20850;-73
2022/09/09 09:58:33;;;;;;;0.30;0.30;;;24.20;85.00;;;;;;5013799;28;20207;-74
2022/09/09 10:01:00;;;;;;;0.30;0.30;;;25.60;76.00;;;;;;5013865;28;20427;-73
2022/09/09 10:03:30;;;;;;;0.40;0.40;;;25.60;76.70;;;;;;5014008;28;20398;-73
2022/09/09 10:05:56;;;;;;;0.30;0.30;;;25.60;98.80;;;;;;5014110;28;20409;-72
2022/09/09 10:08:26;;;;;;;0.30;0.30;;;25.10;71.80;;;;;;5013641;28;20423;-71
2022/09/09 10:11:29;;;;;;;0.40;0.40;;;24.60;99.90;;;;;;5013419;28;20175;-73
2022/09/09 10:13:55;;;;;;;0.30;0.30;;;;;;;;;;5012356;28;20703;-73
2022/09/09 10:16:30;;;;;;;0.30;0.30;;;24.90;97.80;;;;;;5012732;28;20438;-73
2022/09/09 10:19:12;;;;;;;0.30;0.30;;;25.70;96.30;;;;;;5012067;28;20443;-71
2022/09/09 10:21:42;;;;;;;0.30;0.30;;;25.50;75.70;;;;;;5013418;28;20433;-73
2022/09/09 10:24:27;;;;;;;0.30;0.30;;;25.00;99.90;;;;;;5013548;28;20377;-74
2022/09/09 10:26:57;;;;;;;0.30;0.30;;;25.20;90.90;;;;;;5013018;28;20770;-72
2022/09/09 10:29:48;;;;;;;0.30;0.30;;;25.40;99.40;;;;;;5011801;28;20421;-71
2022/09/09 10:32:52;;;;;;;1.33;1.33;;;25.40;72.70;;;;;;5012362;28;20377;-73
2022/09/09 10:35:42;;;;;;;0.40;0.40;;;26.20;98.20;;;;;;4934063;29;20431;-72
2022/09/09 10:38:17;;;;;;;0.30;0.30;;;26.30;97.40;;;;;;5011397;28;20527;-73
2022/09/09 10:40:58;;;;;;;0.50;0.50;;;25.40;93.00;;;;;;5013425;28;20794;-72
2022/09/09 10:43:47;;;;;;;0.30;0.30;;;25.60;68.40;;;;;;5013492;28;20382;-73
2022/09/09 10:46:35;;;;;;;0.40;0.40;;;24.10;98.70;;;;;;5013525;28;20411;-73
2022/09/09 10:49:30;;;;;;;0.30;0.30;;;23.90;67.80;;;;;;5013270;28;20480;-72
2022/09/09 10:52:23;;;;;;;0.30;0.30;;;22.20;99.90;;;;;;5013295;28;20378;-72
2022/09/09 10:55:12;;;;;;;0.30;0.30;;;22.20;99.90;;;;;;5013345;28;20891;-72
2022/09/09 10:57:48;;;;;;;0.30;0.30;;;21.20;99.90;;;;;;5015076;28;20427;-72
2022/09/09 11:00:18;;;;;;;0.30;0.30;;;21.30;97.10;;;;;;5016107;28;20424;-72
2022/09/09 11:02:44;;;;;;;0.40;0.40;;;;;;;;;;5015729;28;20446;-71
2022/09/09 11:05:14;;;;;;;0.30;0.30;;;20.30;99.90;;;;;;5016538;28;20411;-72
2022/09/09 11:07:55;;;;;;;0.30;0.30;;;19.60;99.90;;;;;;5016894;28;20430;-73
2022/09/09 11:10:41;;;;;;;0.50;0.50;;;20.10;99.90;;;;;;5016658;28;20410;-72
2022/09/09 11:13:43;;;;;;;0.40;0.40;;;20.00;91.50;;;;;;5017140;28;20402;-73
2022/09/09 11:16:34;;;;;;;0.30;0.30;;;20.30;90.20;;;;;;4979760;28;20444;-73
2022/09/09 11:19:21;;;;;;;0.40;0.40;;;20.60;81.50;;;;;;5016845;28;20465;-72
2022/09/09 11:21:51;;;;;;;0.40;0.40;;;20.60;98.90;;;;;;5016901;28;20418;-72
2022/09/09 11:24:22;;;;;;;0.43;0.40;;;20.40;99.90;;;;;;5016590;28;20407;-72
2022/09/09 11:27:19;;;;;;;0.50;0.50;;;20.70;99.90;;;;;;5016588;28;20413;-73
2022/09/09 11:30:14;;;;;;;0.30;0.30;;;21.00;99.80;;;;;;4982341;28;20922;-72
2022/09/09 11:33:16;;;;;;;0.30;0.30;;;20.60;99.90;;;;;;5016383;28;20884;-73
2022/09/09 11:36:14;;;;;;;0.60;0.53;;;20.10;99.90;;;;;;5016740;28;20414;-73
2022/09/09 11:38:47;;;;;;;0.40;0.30;;;20.00;99.90;;;;;;5016306;28;20468;-73
2022/09/09 11:41:15;;;;;;;0.30;0.30;;;19.90;89.20;;;;;;5016173;28;20412;-75
2022/09/09 11:43:47;;;;;;;0.30;0.30;;;19.90;90.60;;;;;;5015160;28;20914;-74
2022/09/09 11:46:17;;;;;;;0.30;0.30;;;19.80;85.70;;;;;;5016047;28;20405;-73
2022/09/09 11:48:48;;;;;;;0.60;0.60;;;19.80;92.50;;;;;;5016069;28;20439;-72
2022/09/09 11:51:35;;;;;;;0.50;0.43;;;19.80;92.40;;;;;;5015916;28;20445;-73
2022/09/09 11:54:28;;;;;;;0.30;0.30;;;20.00;85.80;;;;;;5015799;28;20418;-72
2022/09/09 11:56:53;;;;;;;0.37;0.37;;;20.40;99.90;;;;;;5016063;28;20410;-73
2022/09/09 11:59:31;;;;;;;0.40;0.40;;;20.60;99.90;;;;;;5015509;28;20813;-73
2022/09/09 12:01:58;;;;;;;0.30;0.30;;;20.70;99.90;;;;;;5015970;28;20247;-74
2022/09/09 12:04:24;;;;;;;0.30;0.30;;;20.90;85.50;;;;;;5014860;28;20845;-73
2022/09/09 12:06:57;;;;;;;0.40;0.40;;;21.50;99.90;;;;;;5015587;28;20900;-74
2022/09/09 12:09:50;;;;;;;0.63;0.50;;;21.30;87.90;;;;;;5015122;28;20412;-73
2022/09/09 12:12:16;;;;;;;0.40;0.30;;;;;;;;;;5015729;28;20472;-72
2022/09/09 12:14:41;;;;;;;0.30;0.30;;;22.00;99.90;;;;;;5015378;28;20438;-72
2022/09/09 12:17:15;;;;;;;0.40;0.40;;;21.60;79.10;;;;;;5015393;28;20816;-72
2022/09/09 12:19:42;;;;;;;0.40;0.40;;;21.30;99.90;;;;;;5015161;28;20339;-72
2022/09/09 12:22:15;;;;;;;0.30;0.30;;;21.40;99.90;;;;;;5015297;28;20449;-72
2022/09/09 12:24:41;;;;;;;0.30;0.30;;;;;;;;;;5014440;28;20416;-72
2022/09/09 12:27:17;;;;;;;0.30;0.30;;;21.90;76.30;;;;;;5014589;28;20510;-73
2022/09/09 12:29:56;;;;;;;0.30;0.30;;;21.70;97.70;;;;;;5013879;28;20409;-73
2022/09/09 12:32:25;;;;;;;0.30;0.30;;;21.80;92.00;;;;;;5013778;28;20462;-73
2022/09/09 12:35:01;;;;;;;0.30;0.30;;;22.30;98.50;;;;;;5014249;28;20422;-72
2022/09/09 12:37:42;;;;;;;0.37;0.37;;;21.80;97.60;;;;;;5014987;28;20420;-73
2022/09/09 12:40:26;;;;;;;0.30;0.30;;;21.30;98.70;;;;;;5014823;28;20390;-72
2022/09/09 12:42:52;;;;;;;0.30;0.30;;;21.30;98.00;;;;;;5015049;28;20418;-71
2022/09/09 12:45:21;;;;;;;0.50;0.30;;;21.10;99.90;;;;;;5014785;28;20411;-74
2022/09/09 12:48:11;;;;;;;0.30;0.30;;;21.40;99.90;;;;;;5013833;28;21257;-72
2022/09/09 12:50:45;;;;;;;0.30;0.30;;;21.60;82.50;;;;;;5014285;28;20437;-73
2022/09/09 12:53:20;;;;;;;0.30;0.30;;;21.40;77.80;;;;;;5013970;28;20501;-71
2022/09/09 12:55:56;;;;;;;0.30;0.30;;;21.50;98.70;;;;;;5014549;28;20426;-71
2022/09/09 12:58:22;;;;;;;0.30;0.30;;;21.40;98.20;;;;;;5014708;28;20450;-71
2022/09/09 13:00:56;;;;;;;0.30;0.30;;;21.30;97.60;;;;;;5012126;28;20409;-73
2022/09/09 13:03:23;;;;;;;2.40;0.57;;;21.20;98.20;;;;;;5013277;28;20437;-72
2022/09/09 13:05:49;;;;;;;0.30;0.30;;;21.00;99.90;;;;;;5014750;28;20402;-73
2022/09/09 13:08:20;;;;;;;0.30;0.30;;;21.10;98.30;;;;;;5014626;28;20434;-73
2022/09/09 13:11:02;;;;;;;0.30;0.30;;;20.60;98.30;;;;;;5013544;28;20418;-72
2022/09/09 13:13:39;;;;;;;0.30;0.30;;;21.00;99.60;;;;;;5014782;28;20402;-71
2022/09/09 13:16:08;;;;;;;1.93;1.03;;;22.90;84.40;;;;;;5013688;28;20432;-71
2022/09/09 13:18:40;;;;;;;0.30;0.30;;;20.60;99.90;;;;;;5011665;28;20462;-73
2022/09/09 13:21:06;;;;;;;5.57;0.60;;;21.00;97.30;;;;;;5014181;28;20406;-72
2022/09/09 13:23:35;;;;;;;0.40;0.40;;;21.40;99.90;;;;;;5014179;28;20403;-72
2022/09/09 13:26:07;;;;;;;0.30;0.30;;;21.30;78.40;;;;;;5014349;28;20407;-73